createdAt,value
2023-04-27T00:00:19.584Z,72.50
2023-04-27T00:01:19.565Z,67.64
2023-04-27T00:02:19.684Z,70.73
2023-04-27T00:03:19.824Z,69.94
2023-04-27T00:04:19.697Z,69.34
2023-04-27T00:05:19.682Z,70.23
2023-04-27T00:06:19.728Z,68.43
2023-04-27T00:07:19.601Z,72.03
2023-04-27T00:08:19.611Z,70.93
2023-04-27T00:09:19.643Z,71.13
2023-04-27T00:10:19.638Z,71.06
2023-04-27T00:11:19.635Z,67.44
2023-04-27T00:12:19.642Z,65.93
2023-04-27T00:13:19.659Z,70.30
2023-04-27T00:14:19.665Z,74.24
2023-04-27T00:15:19.675Z,66.45
2023-04-27T00:16:19.719Z,69.49
2023-04-27T00:17:19.702Z,69.63
2023-04-27T00:18:19.701Z,68.59
2023-04-27T00:19:19.708Z,69.54
2023-04-27T00:20:19.717Z,68.93
2023-04-27T00:21:19.727Z,71.15
2023-04-27T00:22:19.744Z,64.12
2023-04-27T00:23:19.737Z,71.41
2023-04-27T00:24:19.752Z,68.59
2023-04-27T00:25:19.763Z,67.96
2023-04-27T00:26:19.763Z,70.21
2023-04-27T00:27:19.787Z,65.98
2023-04-27T00:28:19.788Z,71.84
2023-04-27T00:29:19.796Z,68.23
2023-04-27T00:30:19.807Z,71.84
2023-04-27T00:31:19.873Z,68.49
2023-04-27T00:32:19.854Z,75.56
2023-04-27T00:33:19.830Z,69.53
2023-04-27T00:34:19.851Z,68.99
2023-04-27T00:35:19.864Z,71.74
2023-04-27T00:36:19.880Z,67.59
2023-04-27T00:37:19.884Z,66.59
2023-04-27T00:38:19.903Z,69.23
2023-04-27T00:39:19.918Z,66.68
2023-04-27T00:40:19.930Z,69.14
2023-04-27T00:41:19.940Z,64.36
2023-04-27T00:42:19.955Z,73.93
2023-04-27T00:43:19.972Z,73.37
2023-04-27T00:44:19.980Z,71.79
2023-04-27T00:45:19.997Z,67.78
2023-04-27T00:46:20.054Z,65.77
2023-04-27T00:47:20.068Z,66.52
2023-04-27T00:48:20.325Z,71.55
2023-04-27T00:49:20.057Z,68.29
2023-04-27T00:50:20.189Z,72.79
2023-04-27T00:51:20.094Z,70.55
2023-04-27T00:52:20.102Z,71.98
2023-04-27T00:53:20.269Z,70.03
2023-04-27T00:54:20.138Z,67.82
2023-04-27T00:55:20.147Z,70.65
2023-04-27T00:56:20.173Z,71.36
2023-04-27T00:57:20.184Z,70.24
2023-04-27T00:58:20.196Z,63.28
2023-04-27T00:59:20.210Z,65.57
2023-04-27T01:00:20.238Z,63.07
2023-04-27T01:01:20.252Z,70.15
2023-04-27T01:02:20.338Z,64.85
2023-04-27T01:03:20.478Z,68.38
2023-04-27T01:04:20.427Z,66.45
2023-04-27T01:05:20.282Z,63.58
2023-04-27T01:06:20.289Z,66.97
2023-04-27T01:07:20.328Z,65.28
2023-04-27T01:08:20.323Z,62.56
2023-04-27T01:09:20.378Z,64.12
2023-04-27T01:10:20.369Z,64.04
2023-04-27T01:11:20.391Z,62.86
2023-04-27T01:12:20.396Z,63.55
2023-04-27T01:13:20.426Z,64.96
2023-04-27T01:14:20.431Z,60.57
2023-04-27T01:15:20.453Z,65.19
2023-04-27T01:16:20.530Z,63.94
2023-04-27T01:17:20.475Z,70.78
2023-04-27T01:18:20.504Z,64.48
2023-04-27T01:19:20.512Z,66.92
2023-04-27T01:20:20.523Z,70.26
2023-04-27T01:21:20.544Z,69.86
2023-04-27T01:22:20.559Z,71.21
2023-04-27T01:23:20.575Z,67.75
2023-04-27T01:24:20.598Z,64.20
2023-04-27T01:25:20.623Z,63.16
2023-04-27T01:26:20.629Z,65.56
2023-04-27T01:27:20.636Z,61.44
2023-04-27T01:28:20.665Z,69.03
2023-04-27T01:29:20.671Z,62.60
2023-04-27T01:30:20.684Z,62.08
2023-04-27T01:31:20.725Z,64.14
2023-04-27T01:32:20.734Z,61.18
2023-04-27T01:33:20.734Z,63.54
2023-04-27T01:34:20.761Z,63.88
2023-04-27T01:35:20.777Z,60.02
2023-04-27T01:36:20.792Z,63.43
2023-04-27T01:37:20.811Z,58.53
2023-04-27T01:38:20.837Z,66.35
2023-04-27T01:39:20.853Z,64.29
2023-04-27T01:40:20.880Z,64.29
2023-04-27T01:41:20.883Z,67.26
2023-04-27T01:42:20.898Z,64.95
2023-04-27T01:43:20.915Z,68.50
2023-04-27T01:44:20.932Z,58.47
2023-04-27T01:45:20.949Z,60.01
2023-04-27T01:46:20.986Z,56.93
2023-04-27T01:47:20.975Z,59.27
2023-04-27T01:48:20.995Z,60.82
2023-04-27T01:49:21.014Z,60.37
2023-04-27T01:50:21.024Z,67.06
2023-04-27T01:51:21.032Z,63.51
2023-04-27T01:52:21.058Z,62.30
2023-04-27T01:53:21.068Z,66.08
2023-04-27T01:54:21.088Z,62.03
2023-04-27T01:55:21.097Z,65.31
2023-04-27T01:56:21.113Z,63.78
2023-04-27T01:57:21.146Z,59.01
2023-04-27T01:58:21.150Z,58.90
2023-04-27T01:59:21.174Z,67.14
2023-04-27T02:00:21.184Z,65.73
2023-04-27T02:01:21.223Z,62.60
2023-04-27T02:02:21.388Z,62.95
2023-04-27T02:03:21.302Z,61.38
2023-04-27T02:04:21.464Z,64.25
2023-04-27T02:05:21.255Z,61.13
2023-04-27T02:06:21.258Z,63.85
2023-04-27T02:07:21.275Z,61.95
2023-04-27T02:08:21.282Z,62.66
2023-04-27T02:09:21.299Z,68.05
2023-04-27T02:10:21.311Z,65.25
2023-04-27T02:11:21.323Z,58.96
2023-04-27T02:12:21.349Z,63.64
2023-04-27T02:13:21.372Z,66.51
2023-04-27T02:14:21.363Z,62.10
2023-04-27T02:15:21.371Z,59.66
2023-04-27T02:16:21.414Z,60.44
2023-04-27T02:17:21.415Z,60.36
2023-04-27T02:18:21.420Z,59.53
2023-04-27T02:19:21.432Z,60.57
2023-04-27T02:20:21.450Z,57.23
2023-04-27T02:21:21.465Z,65.01
2023-04-27T02:22:21.477Z,57.13
2023-04-27T02:23:21.500Z,56.16
2023-04-27T02:24:21.584Z,64.22
2023-04-27T02:25:21.531Z,59.37
2023-04-27T02:26:21.546Z,55.76
2023-04-27T02:27:21.565Z,57.53
2023-04-27T02:28:21.574Z,57.09
2023-04-27T02:29:21.585Z,56.20
2023-04-27T02:31:40.504Z,25.00
2023-04-27T02:32:40.428Z,25.00
2023-04-27T02:33:40.394Z,25.00
2023-04-27T02:34:40.392Z,25.00
2023-04-27T02:35:40.410Z,25.00
2023-04-27T02:36:40.380Z,25.00
2023-04-27T02:37:40.383Z,27.03
2023-04-27T02:38:40.383Z,26.17
2023-04-27T02:39:40.395Z,28.59
2023-04-27T02:40:40.374Z,31.87
2023-04-27T02:41:40.363Z,25.00
2023-04-27T02:42:40.366Z,31.12
2023-04-27T02:43:40.369Z,30.67
2023-04-27T02:44:40.364Z,32.14
2023-04-27T02:45:40.361Z,25.53
2023-04-27T02:46:40.388Z,27.91
2023-04-27T02:47:40.374Z,27.39
2023-04-27T02:48:40.339Z,31.57
2023-04-27T02:49:40.338Z,28.44
2023-04-27T02:50:40.339Z,33.36
2023-04-27T02:51:40.329Z,32.07
2023-04-27T02:52:40.327Z,26.61
2023-04-27T02:53:40.326Z,31.61
2023-04-27T02:54:40.316Z,26.74
2023-04-27T02:55:40.316Z,29.10
2023-04-27T02:56:40.300Z,32.48
2023-04-27T02:57:40.296Z,34.98
2023-04-27T02:58:40.284Z,39.55
2023-04-27T02:59:40.282Z,28.05
2023-04-27T03:00:40.277Z,35.39
2023-04-27T03:01:40.426Z,34.82
2023-04-27T03:02:40.435Z,26.97
2023-04-27T03:03:40.349Z,27.78
2023-04-27T03:04:40.294Z,32.26
2023-04-27T03:05:40.243Z,33.87
2023-04-27T03:06:40.230Z,25.00
2023-04-27T03:07:40.230Z,28.86
2023-04-27T03:08:40.220Z,35.17
2023-04-27T03:09:40.220Z,25.00
2023-04-27T03:10:40.212Z,32.84
2023-04-27T03:11:40.207Z,30.35
2023-04-27T03:12:40.210Z,38.01
2023-04-27T03:13:40.199Z,31.27
2023-04-27T03:14:40.197Z,31.24
2023-04-27T03:15:40.195Z,27.86
2023-04-27T03:16:40.240Z,31.50
2023-04-27T03:17:40.212Z,28.57
2023-04-27T03:18:40.189Z,32.63
2023-04-27T03:19:40.185Z,37.45
2023-04-27T03:20:40.184Z,25.98
2023-04-27T03:21:40.172Z,32.89
2023-04-27T03:22:40.177Z,35.49
2023-04-27T03:23:40.175Z,25.98
2023-04-27T03:24:40.165Z,28.08
2023-04-27T03:25:40.162Z,36.45
2023-04-27T03:26:40.155Z,29.84
2023-04-27T03:27:40.147Z,31.51
2023-04-27T03:28:40.135Z,28.03
2023-04-27T03:29:40.143Z,35.84
2023-04-27T03:30:40.128Z,24.93
2023-04-27T03:31:40.167Z,28.93
2023-04-27T03:32:40.153Z,31.45
2023-04-27T03:33:40.112Z,30.80
2023-04-27T03:34:40.118Z,28.53
2023-04-27T03:35:40.110Z,32.09
2023-04-27T03:36:40.146Z,37.94
2023-04-27T03:37:40.099Z,31.94
2023-04-27T03:38:40.093Z,30.85
2023-04-27T03:39:40.089Z,30.77
2023-04-27T03:40:40.097Z,27.66
2023-04-27T03:41:40.062Z,33.43
2023-04-27T03:42:40.068Z,37.70
2023-04-27T03:43:40.053Z,33.88
2023-04-27T03:44:40.054Z,31.85
2023-04-27T03:45:40.044Z,28.40
2023-04-27T03:46:40.014Z,31.96
2023-04-27T03:47:40.168Z,28.59
2023-04-27T03:48:39.983Z,39.86
2023-04-27T03:49:39.982Z,31.93
2023-04-27T03:50:39.967Z,27.36
2023-04-27T03:51:39.960Z,32.04
2023-04-27T03:52:39.955Z,31.14
2023-04-27T03:53:39.938Z,28.50
2023-04-27T03:54:39.944Z,37.04
2023-04-27T03:55:39.936Z,28.17
2023-04-27T03:56:39.931Z,25.10
2023-04-27T03:57:39.936Z,35.60
2023-04-27T03:58:39.941Z,32.61
2023-04-27T03:59:39.931Z,30.53
2023-04-27T04:00:39.918Z,33.08
2023-04-27T04:01:40.010Z,31.91
2023-04-27T04:02:40.084Z,32.59
2023-04-27T04:03:40.042Z,33.51
2023-04-27T04:04:40.125Z,35.34
2023-04-27T04:05:39.906Z,34.60
2023-04-27T04:06:39.920Z,32.25
2023-04-27T04:07:39.939Z,28.51
2023-04-27T04:08:39.954Z,31.46
2023-04-27T04:09:39.979Z,34.70
2023-04-27T04:10:39.989Z,32.89
2023-04-27T04:11:40.013Z,33.95
2023-04-27T04:12:40.044Z,30.25
2023-04-27T04:13:40.072Z,37.78
2023-04-27T04:14:40.091Z,26.69
2023-04-27T04:15:40.161Z,38.42
2023-04-27T04:16:40.133Z,33.09
2023-04-27T04:17:40.174Z,35.11
2023-04-27T04:18:40.176Z,34.29
2023-04-27T04:19:40.206Z,38.68
2023-04-27T04:20:40.223Z,33.61
2023-04-27T04:21:40.249Z,29.19
2023-04-27T04:22:40.271Z,33.37
2023-04-27T04:23:40.290Z,36.46
2023-04-27T04:24:40.317Z,26.61
2023-04-27T04:25:40.383Z,34.34
2023-04-27T04:26:40.345Z,28.04
2023-04-27T04:27:40.383Z,30.03
2023-04-27T04:28:40.400Z,28.78
2023-04-27T04:29:40.437Z,31.05
2023-04-27T04:30:40.448Z,37.42
2023-04-27T04:31:40.484Z,32.57
2023-04-27T04:32:40.536Z,28.28
2023-04-27T04:33:40.495Z,25.66
2023-04-27T04:34:40.516Z,36.80
2023-04-27T04:35:40.532Z,29.79
2023-04-27T04:36:40.573Z,37.98
2023-04-27T04:37:40.598Z,39.16
2023-04-27T04:38:40.596Z,29.10
2023-04-27T04:39:40.620Z,37.10
2023-04-27T04:40:40.655Z,40.69
2023-04-27T04:41:40.670Z,31.26
2023-04-27T04:42:40.702Z,30.73
2023-04-27T04:43:40.721Z,32.01
2023-04-27T04:44:40.774Z,37.85
2023-04-27T04:45:40.787Z,30.17
2023-04-27T04:46:40.873Z,26.61
2023-04-27T04:47:40.853Z,31.80
2023-04-27T04:48:40.846Z,38.87
2023-04-27T04:49:40.879Z,37.15
2023-04-27T04:50:40.897Z,35.84
2023-04-27T04:51:40.917Z,32.67
2023-04-27T04:52:40.939Z,28.87
2023-04-27T04:53:40.964Z,32.07
2023-04-27T04:54:40.982Z,34.02
2023-04-27T04:55:41.003Z,32.21
2023-04-27T04:56:41.017Z,28.45
2023-04-27T04:57:41.051Z,30.59
2023-04-27T04:58:41.071Z,31.70
2023-04-27T04:59:41.080Z,32.53
2023-04-27T05:00:41.107Z,29.60
2023-04-27T05:01:41.202Z,31.01
2023-04-27T05:02:41.355Z,29.28
2023-04-27T05:03:41.397Z,33.30
2023-04-27T05:04:41.355Z,30.44
2023-04-27T05:05:41.230Z,30.14
2023-04-27T05:06:41.254Z,29.88
2023-04-27T05:07:41.272Z,32.29
2023-04-27T05:08:41.294Z,30.30
2023-04-27T05:09:42.111Z,28.13
2023-04-27T05:10:41.345Z,29.71
2023-04-27T05:11:41.359Z,36.90
2023-04-27T05:12:41.389Z,33.26
2023-04-27T05:13:41.410Z,31.29
2023-04-27T05:14:41.411Z,35.18
2023-04-27T05:15:41.429Z,33.54
2023-04-27T05:16:41.552Z,33.83
2023-04-27T05:17:41.530Z,34.15
2023-04-27T05:18:41.503Z,33.68
2023-04-27T05:19:41.516Z,32.74
2023-04-27T05:20:41.552Z,25.44
2023-04-27T05:21:41.559Z,35.50
2023-04-27T05:22:41.569Z,37.32
2023-04-27T05:23:41.598Z,26.34
2023-04-27T05:24:41.605Z,27.45
2023-04-27T05:25:41.739Z,33.67
2023-04-27T05:26:41.628Z,43.34
2023-04-27T05:27:41.650Z,54.09
2023-04-27T05:28:41.650Z,66.55
2023-04-27T05:29:41.649Z,64.46
2023-04-27T05:30:41.632Z,68.88
2023-04-27T05:31:41.678Z,72.31
2023-04-27T05:32:41.688Z,79.35
2023-04-27T05:33:41.689Z,86.07
2023-04-27T05:34:41.752Z,89.15
2023-04-27T05:35:41.807Z,103.04
2023-04-27T05:36:41.854Z,108.95
2023-04-27T05:37:42.036Z,116.50
2023-04-27T05:38:41.961Z,128.32
2023-04-27T05:39:41.974Z,126.84
2023-04-27T05:40:42.017Z,133.42
2023-04-27T05:41:42.054Z,148.46
2023-04-27T05:42:42.058Z,154.54
2023-04-27T05:43:42.141Z,162.70
2023-04-27T05:44:42.172Z,172.85
2023-04-27T05:45:42.180Z,175.63
2023-04-27T05:46:42.186Z,185.73
2023-04-27T05:47:42.187Z,193.81
2023-04-27T05:48:42.170Z,203.11
2023-04-27T05:49:42.185Z,203.20
2023-04-27T05:50:42.186Z,203.76
2023-04-27T05:51:42.159Z,207.08
2023-04-27T05:52:42.106Z,214.62
2023-04-27T05:53:42.172Z,226.19
2023-04-27T05:54:42.057Z,243.29
2023-04-27T05:55:42.023Z,250.00
2023-04-27T05:56:42.014Z,250.09
2023-04-27T05:57:41.983Z,245.72
2023-04-27T05:58:41.947Z,250.00
2023-04-27T05:59:41.937Z,246.03
2023-04-27T06:00:41.916Z,250.00
2023-04-27T06:01:41.887Z,249.84
2023-04-27T06:02:41.977Z,250.00
2023-04-27T06:03:42.028Z,250.00
2023-04-27T06:04:41.870Z,250.00
2023-04-27T06:05:41.944Z,250.00
2023-04-27T06:06:41.761Z,249.40
2023-04-27T06:07:41.727Z,250.82
2023-04-27T06:08:41.697Z,250.00
2023-04-27T06:09:41.776Z,250.00
2023-04-27T06:10:41.663Z,250.00
2023-04-27T06:11:41.646Z,250.00
2023-04-27T06:12:41.641Z,250.00
2023-04-27T06:13:41.621Z,248.40
2023-04-27T06:14:41.598Z,250.00
2023-04-27T06:15:41.651Z,250.00
2023-04-27T06:16:41.558Z,250.00
2023-04-27T06:17:41.612Z,247.02
2023-04-27T06:18:41.524Z,249.76
2023-04-27T06:19:41.494Z,249.88
2023-04-27T06:20:41.481Z,249.85
2023-04-27T06:21:41.452Z,247.70
2023-04-27T06:22:41.442Z,248.86
2023-04-27T06:23:42.158Z,244.71
2023-04-27T06:24:41.480Z,248.45
2023-04-27T06:25:41.374Z,249.81
2023-04-27T06:26:42.142Z,249.36
2023-04-27T06:27:41.320Z,249.64
2023-04-27T06:28:41.326Z,250.00
2023-04-27T06:29:41.322Z,250.14
2023-04-27T06:30:41.289Z,251.03
2023-04-27T06:31:41.321Z,253.01
2023-04-27T06:32:41.272Z,256.95
2023-04-27T06:33:41.191Z,263.02
2023-04-27T06:34:41.153Z,250.00
2023-04-27T06:35:41.148Z,249.32
2023-04-27T06:36:41.736Z,249.69
2023-04-27T06:37:41.078Z,247.09
2023-04-27T06:38:41.037Z,249.67
2023-04-27T06:39:41.066Z,248.21
2023-04-27T06:40:41.079Z,250.00
2023-04-27T06:41:41.069Z,249.77
2023-04-27T06:42:41.108Z,244.56
2023-04-27T06:43:41.134Z,248.84
2023-04-27T06:44:41.176Z,249.35
2023-04-27T06:45:41.219Z,248.52
2023-04-27T06:46:41.299Z,249.53
2023-04-27T06:47:41.375Z,249.18
2023-04-27T06:48:41.342Z,250.00
2023-04-27T06:49:41.373Z,248.91
2023-04-27T06:50:41.419Z,249.28
2023-04-27T06:51:41.483Z,250.00
2023-04-27T06:52:41.494Z,249.90
2023-04-27T06:53:41.532Z,248.90
2023-04-27T06:54:41.578Z,250.30
2023-04-27T06:55:43.532Z,249.61
2023-04-27T06:56:41.605Z,249.38
2023-04-27T06:57:41.570Z,248.81
2023-04-27T06:58:41.553Z,249.78
2023-04-27T06:59:41.514Z,250.00
2023-04-27T07:00:41.497Z,250.00
2023-04-27T07:01:41.502Z,250.00
2023-04-27T07:02:42.211Z,250.00
2023-04-27T07:03:41.585Z,248.91
2023-04-27T07:04:41.404Z,249.38
2023-04-27T07:05:41.358Z,248.62
2023-04-27T07:06:41.337Z,249.73
2023-04-27T07:07:41.299Z,248.22
2023-04-27T07:08:41.272Z,250.00
2023-04-27T07:09:41.251Z,250.00
2023-04-27T07:10:41.243Z,249.62
2023-04-27T07:11:41.190Z,250.00
2023-04-27T07:12:41.163Z,249.23
2023-04-27T07:13:41.136Z,250.00
2023-04-27T07:14:41.102Z,248.46
2023-04-27T07:15:41.108Z,250.00
2023-04-27T07:16:41.115Z,248.53
2023-04-27T07:17:41.004Z,248.53
2023-04-27T07:18:42.082Z,249.40
2023-04-27T07:19:40.974Z,229.20
2023-04-27T07:20:42.169Z,200.10
2023-04-27T07:21:41.149Z,172.06
2023-04-27T07:22:41.842Z,160.86
2023-04-27T07:23:40.939Z,151.65
2023-04-27T07:24:40.929Z,151.30
2023-04-27T07:25:40.897Z,148.99
2023-04-27T07:26:40.867Z,147.75
2023-04-27T07:27:41.594Z,150.08
2023-04-27T07:28:40.865Z,151.20
2023-04-27T07:29:41.588Z,153.09
2023-04-27T07:30:40.909Z,154.79
2023-04-27T07:31:40.996Z,156.45
2023-04-27T07:32:41.033Z,158.69
2023-04-27T07:33:41.019Z,159.23
2023-04-27T07:34:52.079Z,164.41
2023-04-27T07:35:42.074Z,164.53
2023-04-27T07:36:40.998Z,164.98
2023-04-27T07:37:40.960Z,165.72
2023-04-27T07:38:40.923Z,167.15
2023-04-27T07:39:40.882Z,171.09
2023-04-27T07:40:42.118Z,173.52
2023-04-27T07:41:40.826Z,175.68
2023-04-27T07:42:40.784Z,177.90
2023-04-27T07:43:40.770Z,180.81
2023-04-27T07:44:40.878Z,182.12
2023-04-27T07:45:40.828Z,184.66
2023-04-27T07:46:40.799Z,186.75
2023-04-27T07:47:40.825Z,188.97
2023-04-27T07:48:40.780Z,188.85
2023-04-27T07:49:40.784Z,191.68
2023-04-27T07:50:40.889Z,193.85
2023-04-27T07:51:40.799Z,195.50
2023-04-27T07:52:40.761Z,197.27
2023-04-27T07:53:40.769Z,199.47
2023-04-27T07:54:40.784Z,201.06
2023-04-27T07:55:40.781Z,203.99
2023-04-27T07:56:40.771Z,206.13
2023-04-27T07:57:40.776Z,207.88
2023-04-27T07:58:40.779Z,209.71
2023-04-27T07:59:40.772Z,212.33
2023-04-27T08:00:40.775Z,213.87
2023-04-27T08:01:40.760Z,216.07
2023-04-27T08:02:40.897Z,217.06
2023-04-27T08:03:41.013Z,220.29
2023-04-27T08:04:41.153Z,221.67
2023-04-27T08:05:41.236Z,223.53
2023-04-27T08:06:41.273Z,227.89
2023-04-27T08:07:44.468Z,228.21
2023-04-27T08:08:40.883Z,227.95
2023-04-27T08:09:40.616Z,227.50
2023-04-27T08:10:41.174Z,218.30
2023-04-27T08:11:40.568Z,219.30
2023-04-27T08:12:40.530Z,217.08
2023-04-27T08:13:41.105Z,199.68
2023-04-27T08:14:40.475Z,171.95
2023-04-27T08:15:41.192Z,160.94
2023-04-27T08:16:40.482Z,139.75
2023-04-27T08:17:40.465Z,120.87
2023-04-27T08:18:40.397Z,111.37
2023-04-27T08:19:40.365Z,94.84
2023-04-27T08:20:40.342Z,84.33
2023-04-27T08:21:40.318Z,69.35
2023-04-27T08:22:40.320Z,49.85
2023-04-27T08:23:40.278Z,38.84
2023-04-27T08:24:40.266Z,35.60
2023-04-27T08:25:40.244Z,38.52
2023-04-27T08:26:40.234Z,39.07
2023-04-27T08:27:40.349Z,38.30
2023-04-27T08:28:40.195Z,42.10
2023-04-27T08:29:40.163Z,46.76
2023-04-27T08:30:40.151Z,48.38
2023-04-27T08:31:40.255Z,54.00
2023-04-27T08:32:40.146Z,57.94
2023-04-27T08:33:40.215Z,61.01
2023-04-27T08:34:40.058Z,64.58
2023-04-27T08:35:40.697Z,66.72
2023-04-27T08:36:40.020Z,70.51
2023-04-27T08:37:39.997Z,73.96
2023-04-27T08:38:40.687Z,78.03
2023-04-27T08:39:39.941Z,81.21
2023-04-27T08:40:39.907Z,85.19
2023-04-27T08:41:42.708Z,88.34
2023-04-27T08:42:39.957Z,92.76
2023-04-27T08:43:39.844Z,95.68
2023-04-27T08:44:39.834Z,99.41
2023-04-27T08:45:39.790Z,101.42
2023-04-27T08:46:39.806Z,104.62
2023-04-27T08:47:43.254Z,106.92
2023-04-27T08:48:40.735Z,107.24
2023-04-27T08:49:39.676Z,108.26
2023-04-27T08:50:39.657Z,110.62
2023-04-27T08:51:39.625Z,115.73
2023-04-27T08:52:39.592Z,124.10
2023-04-27T08:53:39.562Z,127.35
2023-04-27T08:54:39.554Z,130.14
2023-04-27T08:55:39.519Z,131.56
2023-04-27T08:56:39.495Z,134.87
2023-04-27T08:57:39.496Z,137.58
2023-04-27T08:58:39.554Z,141.35
2023-04-27T08:59:39.553Z,144.31
2023-04-27T09:00:39.561Z,145.31
2023-04-27T09:01:39.629Z,147.32
2023-04-27T09:02:39.697Z,150.04
2023-04-27T09:03:39.834Z,152.99
2023-04-27T09:04:39.763Z,156.07
2023-04-27T09:05:46.629Z,157.10
2023-04-27T09:06:40.615Z,157.31
2023-04-27T09:07:39.557Z,157.51
2023-04-27T09:08:39.711Z,158.77
2023-04-27T09:09:39.492Z,161.26
2023-04-27T09:10:39.453Z,165.85
2023-04-27T09:11:39.410Z,173.05
2023-04-27T09:12:39.384Z,176.89
2023-04-27T09:13:39.417Z,178.62
2023-04-27T09:14:39.396Z,182.79
2023-04-27T09:15:40.275Z,182.93
2023-04-27T09:16:39.257Z,180.85
2023-04-27T09:17:39.235Z,180.35
2023-04-27T09:18:39.185Z,179.13
2023-04-27T09:19:39.154Z,144.65
2023-04-27T09:20:39.119Z,122.81
2023-04-27T09:21:39.111Z,109.60
2023-04-27T09:22:39.063Z,104.40
2023-04-27T09:23:39.173Z,107.06
2023-04-27T09:24:39.081Z,118.45
2023-04-27T09:25:38.959Z,123.37
2023-04-27T09:26:38.959Z,129.09
2023-04-27T09:27:38.924Z,127.35
2023-04-27T09:28:38.897Z,128.61
2023-04-27T09:29:38.992Z,129.28
2023-04-27T09:30:38.809Z,129.80
2023-04-27T09:31:38.788Z,130.20
2023-04-27T09:32:38.748Z,130.85
2023-04-27T09:33:39.230Z,132.09
2023-04-27T09:34:38.693Z,132.16
2023-04-27T09:35:38.677Z,130.89
2023-04-27T09:36:38.668Z,132.08
2023-04-27T09:37:39.170Z,130.99
2023-04-27T09:38:38.624Z,130.51
2023-04-27T09:39:38.608Z,130.18
2023-04-27T09:40:38.599Z,130.58
2023-04-27T09:41:40.237Z,130.99
2023-04-27T09:42:38.555Z,131.19
2023-04-27T09:43:38.552Z,131.59
2023-04-27T09:44:38.584Z,131.91
2023-04-27T09:45:38.490Z,132.39
2023-04-27T09:46:39.220Z,132.86
2023-04-27T09:47:38.487Z,133.46
2023-04-27T09:48:38.381Z,133.65
2023-04-27T09:49:38.379Z,134.02
2023-04-27T09:50:38.372Z,134.04
2023-04-27T09:51:38.309Z,133.61
2023-04-27T09:52:38.281Z,133.38
2023-04-27T09:53:38.277Z,132.37
2023-04-27T09:54:38.301Z,133.17
2023-04-27T09:55:38.207Z,132.63
2023-04-27T09:56:38.190Z,131.14
2023-04-27T09:57:38.881Z,132.35
2023-04-27T09:58:38.154Z,132.37
2023-04-27T09:59:39.110Z,132.49
2023-04-27T10:00:38.072Z,132.62
2023-04-27T10:01:38.100Z,132.53
2023-04-27T10:02:50.307Z,132.87
2023-04-27T10:03:39.080Z,132.52
2023-04-27T10:04:38.076Z,132.62
2023-04-27T10:05:38.036Z,132.94
2023-04-27T10:06:37.968Z,133.34
2023-04-27T10:07:37.923Z,133.95
2023-04-27T10:08:38.907Z,132.51
2023-04-27T10:09:37.859Z,132.52
2023-04-27T10:10:37.823Z,132.56
2023-04-27T10:11:37.807Z,132.73
2023-04-27T10:12:37.787Z,132.43
2023-04-27T10:13:37.761Z,132.31
2023-04-27T10:14:37.732Z,131.76
2023-04-27T10:15:37.695Z,131.40
2023-04-27T10:16:37.683Z,129.69
2023-04-27T10:17:37.766Z,131.95
2023-04-27T10:18:37.619Z,129.14
2023-04-27T10:19:37.609Z,130.02
2023-04-27T10:20:37.593Z,129.46
2023-04-27T10:21:37.563Z,129.92
2023-04-27T10:22:37.518Z,127.89
2023-04-27T10:23:37.507Z,128.94
2023-04-27T10:24:37.472Z,128.48
2023-04-27T10:25:37.454Z,128.96
2023-04-27T10:26:39.319Z,128.57
2023-04-27T10:27:38.223Z,127.59
2023-04-27T10:28:37.507Z,129.25
2023-04-27T10:29:37.508Z,127.58
2023-04-27T10:30:37.530Z,128.37
2023-04-27T10:31:37.507Z,128.07
2023-04-27T10:32:37.644Z,127.20
2023-04-27T10:33:37.528Z,127.94
2023-04-27T10:34:37.536Z,126.50
2023-04-27T10:35:37.537Z,127.11
2023-04-27T10:36:38.253Z,127.25
2023-04-27T10:37:37.562Z,125.85
2023-04-27T10:38:37.588Z,127.21
2023-04-27T10:39:47.909Z,126.25
2023-04-27T10:40:38.576Z,126.36
2023-04-27T10:41:37.502Z,126.42
2023-04-27T10:42:37.475Z,126.63
2023-04-27T10:43:37.515Z,126.57
2023-04-27T10:44:37.440Z,127.23
2023-04-27T10:45:37.419Z,126.00
2023-04-27T10:46:37.467Z,125.41
2023-04-27T10:47:37.396Z,126.29
2023-04-27T10:48:37.348Z,125.75
2023-04-27T10:49:37.312Z,125.43
2023-04-27T10:50:37.309Z,126.19
2023-04-27T10:51:37.268Z,126.24
2023-04-27T10:52:37.244Z,124.95
2023-04-27T10:53:37.216Z,125.14
2023-04-27T10:54:37.201Z,124.68
2023-04-27T10:55:37.181Z,124.29
2023-04-27T10:56:37.147Z,123.40
2023-04-27T10:57:37.119Z,124.54
2023-04-27T10:58:48.247Z,124.12
2023-04-27T10:59:38.066Z,124.22
2023-04-27T11:00:37.037Z,124.27
2023-04-27T11:01:37.046Z,124.26
2023-04-27T11:02:37.050Z,124.29
2023-04-27T11:03:37.132Z,123.77
2023-04-27T11:04:37.021Z,122.21
2023-04-27T11:05:36.941Z,122.51
2023-04-27T11:06:36.922Z,122.54
2023-04-27T11:07:36.887Z,123.38
2023-04-27T11:08:36.914Z,122.96
2023-04-27T11:09:36.852Z,122.37
2023-04-27T11:10:36.823Z,122.55
2023-04-27T11:11:36.791Z,122.49
2023-04-27T11:12:36.819Z,123.33
2023-04-27T11:13:36.739Z,122.18
2023-04-27T11:14:36.733Z,122.19
2023-04-27T11:15:36.685Z,122.85
2023-04-27T11:16:36.698Z,122.75
2023-04-27T11:17:36.665Z,120.61
2023-04-27T11:18:36.621Z,121.11
2023-04-27T11:19:36.601Z,120.90
2023-04-27T11:20:36.583Z,121.03
2023-04-27T11:21:36.558Z,121.24
2023-04-27T11:22:36.563Z,120.89
2023-04-27T11:23:36.549Z,119.61
2023-04-27T11:24:36.556Z,119.29
2023-04-27T11:25:36.545Z,117.89
2023-04-27T11:26:36.543Z,118.85
2023-04-27T11:27:36.530Z,118.88
2023-04-27T11:28:36.528Z,117.94
2023-04-27T11:29:36.538Z,117.51
2023-04-27T11:30:36.506Z,117.04
2023-04-27T11:31:36.544Z,116.27
2023-04-27T11:32:36.541Z,117.73
2023-04-27T11:33:36.483Z,116.89
2023-04-27T11:34:36.475Z,117.77
2023-04-27T11:35:36.481Z,118.47
2023-04-27T11:36:36.466Z,117.51
2023-04-27T11:37:36.449Z,117.49
2023-04-27T11:38:36.484Z,115.91
2023-04-27T11:39:36.434Z,117.43
2023-04-27T11:40:36.423Z,116.26
2023-04-27T11:41:36.419Z,115.80
2023-04-27T11:42:36.417Z,116.66
2023-04-27T11:43:36.385Z,116.63
2023-04-27T11:44:36.368Z,115.17
2023-04-27T11:45:36.346Z,115.25
2023-04-27T11:46:36.380Z,115.40
2023-04-27T11:47:36.350Z,114.92
2023-04-27T11:48:36.317Z,115.12
2023-04-27T11:49:36.289Z,114.40
2023-04-27T11:50:36.266Z,113.43
2023-04-27T11:51:36.258Z,113.72
2023-04-27T11:52:36.246Z,112.88
2023-04-27T11:53:36.218Z,113.34
2023-04-27T11:54:36.189Z,113.52
2023-04-27T11:55:36.163Z,114.29
2023-04-27T11:56:36.227Z,113.07
2023-04-27T11:57:36.170Z,112.64
2023-04-27T11:58:36.152Z,112.41
2023-04-27T11:59:36.091Z,112.58
2023-04-27T12:00:36.058Z,112.41
2023-04-27T12:01:38.461Z,111.97
2023-04-27T12:02:36.281Z,112.19
2023-04-27T12:03:36.389Z,112.56
2023-04-27T12:04:36.237Z,111.06
2023-04-27T12:05:36.079Z,111.83
2023-04-27T12:06:36.082Z,110.97
2023-04-27T12:07:36.022Z,109.75
2023-04-27T12:08:35.999Z,109.36
2023-04-27T12:09:35.977Z,109.77
2023-04-27T12:10:35.942Z,109.88
2023-04-27T12:11:36.772Z,109.52
2023-04-27T12:12:35.932Z,108.95
2023-04-27T12:13:35.880Z,108.82
2023-04-27T12:14:35.852Z,108.58
2023-04-27T12:15:35.827Z,109.35
2023-04-27T12:16:35.838Z,109.04
2023-04-27T12:17:35.820Z,108.96
2023-04-27T12:18:35.761Z,107.85
2023-04-27T12:19:35.737Z,109.03
2023-04-27T12:20:35.759Z,108.56
2023-04-27T12:21:35.768Z,107.51
2023-04-27T12:22:35.783Z,108.57
2023-04-27T12:23:35.806Z,108.29
2023-04-27T12:24:35.805Z,107.71
2023-04-27T12:25:35.777Z,107.62
2023-04-27T12:26:35.770Z,108.07
2023-04-27T12:27:35.751Z,105.56
2023-04-27T12:28:35.734Z,106.56
2023-04-27T12:29:35.731Z,105.72
2023-04-27T12:30:35.773Z,105.77
2023-04-27T12:31:35.887Z,105.75
2023-04-27T12:32:35.807Z,106.46
2023-04-27T12:33:35.826Z,106.22
2023-04-27T12:35:35.891Z,105.23
2023-04-27T12:36:35.910Z,104.37
2023-04-27T12:37:35.936Z,104.87
2023-04-27T12:38:35.961Z,103.08
2023-04-27T12:39:36.006Z,104.57
2023-04-27T12:40:36.045Z,104.74
2023-04-27T12:41:36.078Z,103.70